Airport View

Enter AWOS ICAO identifier for current METAR.

ex. KFNL

KSOW 251105Z AUTO 19021KT 10SM CLR 13/M01 A2999 RMK AO2

25 Oct 2020 11:05

Frequency: 118.075

Phone: 928-532-0379

Other Area AWOS: KTYL - KSJN - KJTC - KINW

TAF KINW 250534Z 2506/2606 21012KT P6SM BKN200 FM251500 21015G25KT P6SM SCT200 FM251800 23025G40KT P6SM FEW100 SCT200 FM260130 22011G17KT P6SM SCT070